sensor_id;sensor_type;location;lat;lon;timestamp;temperature;humidity
7970;DHT22;4030;52.362;9.206;2023-06-10T00:01:37;22.30;57.10
7970;DHT22;4030;52.362;9.206;2023-06-10T00:04:03;22.20;57.00
7970;DHT22;4030;52.362;9.206;2023-06-10T00:06:30;22.20;56.90
7970;DHT22;4030;52.362;9.206;2023-06-10T00:09:02;22.20;56.80
7970;DHT22;4030;52.362;9.206;2023-06-10T00:11:30;22.10;56.70
7970;DHT22;4030;52.362;9.206;2023-06-10T00:13:56;22.10;56.70
7970;DHT22;4030;52.362;9.206;2023-06-10T00:16:22;22.10;56.70
7970;DHT22;4030;52.362;9.206;2023-06-10T00:18:48;22.00;56.60
7970;DHT22;4030;52.362;9.206;2023-06-10T00:21:16;22.00;56.60
7970;DHT22;4030;52.362;9.206;2023-06-10T00:23:42;21.90;56.40
7970;DHT22;4030;52.362;9.206;2023-06-10T00:26:08;21.90;56.40
7970;DHT22;4030;52.362;9.206;2023-06-10T00:28:34;21.90;56.30
7970;DHT22;4030;52.362;9.206;2023-06-10T00:31:01;21.80;56.30
7970;DHT22;4030;52.362;9.206;2023-06-10T00:33:26;21.80;56.30
7970;DHT22;4030;52.362;9.206;2023-06-10T00:35:53;21.80;56.20
7970;DHT22;4030;52.362;9.206;2023-06-10T00:38:18;21.70;56.10
7970;DHT22;4030;52.362;9.206;2023-06-10T00:40:44;21.70;56.10
7970;DHT22;4030;52.362;9.206;2023-06-10T00:43:10;21.70;56.10
7970;DHT22;4030;52.362;9.206;2023-06-10T00:45:36;21.70;56.10
7970;DHT22;4030;52.362;9.206;2023-06-10T00:48:01;21.60;56.00
7970;DHT22;4030;52.362;9.206;2023-06-10T00:50:28;21.60;56.00
7970;DHT22;4030;52.362;9.206;2023-06-10T00:52:54;21.50;55.80
7970;DHT22;4030;52.362;9.206;2023-06-10T00:55:20;21.50;55.80
7970;DHT22;4030;52.362;9.206;2023-06-10T00:57:46;21.50;55.80
7970;DHT22;4030;52.362;9.206;2023-06-10T01:00:14;21.50;55.70
7970;DHT22;4030;52.362;9.206;2023-06-10T01:02:40;21.40;55.60
7970;DHT22;4030;52.362;9.206;2023-06-10T01:05:07;21.40;55.60
7970;DHT22;4030;52.362;9.206;2023-06-10T01:07:40;21.40;55.70
7970;DHT22;4030;52.362;9.206;2023-06-10T01:10:28;21.30;55.60
7970;DHT22;4030;52.362;9.206;2023-06-10T01:13:00;21.30;55.60
7970;DHT22;4030;52.362;9.206;2023-06-10T01:15:31;21.30;55.60
7970;DHT22;4030;52.362;9.206;2023-06-10T01:17:59;21.20;55.60
7970;DHT22;4030;52.362;9.206;2023-06-10T01:20:28;21.20;55.70
7970;DHT22;4030;52.362;9.206;2023-06-10T01:22:58;21.10;55.60
7970;DHT22;4030;52.362;9.206;2023-06-10T01:25:26;21.10;55.70
7970;DHT22;4030;52.362;9.206;2023-06-10T01:28:20;21.10;55.70
7970;DHT22;4030;52.362;9.206;2023-06-10T01:33:27;21.00;55.80
7970;DHT22;4030;52.362;9.206;2023-06-10T01:35:58;21.00;55.90
7970;DHT22;4030;52.362;9.206;2023-06-10T01:38:26;20.90;55.90
7970;DHT22;4030;52.362;9.206;2023-06-10T01:40:55;20.90;56.00
7970;DHT22;4030;52.362;9.206;2023-06-10T01:43:22;20.90;56.00
7970;DHT22;4030;52.362;9.206;2023-06-10T01:45:47;20.90;56.10
7970;DHT22;4030;52.362;9.206;2023-06-10T01:48:13;20.80;56.10
7970;DHT22;4030;52.362;9.206;2023-06-10T01:50:39;20.80;56.20
7970;DHT22;4030;52.362;9.206;2023-06-10T01:53:05;20.80;56.20
7970;DHT22;4030;52.362;9.206;2023-06-10T01:55:31;20.80;56.30
7970;DHT22;4030;52.362;9.206;2023-06-10T01:57:56;20.70;56.30
7970;DHT22;4030;52.362;9.206;2023-06-10T02:00:22;20.70;56.40
7970;DHT22;4030;52.362;9.206;2023-06-10T02:02:48;20.70;56.40
7970;DHT22;4030;52.362;9.206;2023-06-10T02:05:13;20.60;56.40
7970;DHT22;4030;52.362;9.206;2023-06-10T02:07:39;20.60;56.60
7970;DHT22;4030;52.362;9.206;2023-06-10T02:10:06;20.60;56.60
7970;DHT22;4030;52.362;9.206;2023-06-10T02:12:32;20.60;56.70
7970;DHT22;4030;52.362;9.206;2023-06-10T02:14:58;20.50;56.70
7970;DHT22;4030;52.362;9.206;2023-06-10T02:17:23;20.50;56.80
7970;DHT22;4030;52.362;9.206;2023-06-10T02:19:49;20.50;56.80
7970;DHT22;4030;52.362;9.206;2023-06-10T02:22:21;20.40;56.90
7970;DHT22;4030;52.362;9.206;2023-06-10T02:24:48;20.50;57.00
7970;DHT22;4030;52.362;9.206;2023-06-10T02:27:15;20.40;57.00
7970;DHT22;4030;52.362;9.206;2023-06-10T02:29:41;20.40;57.10
7970;DHT22;4030;52.362;9.206;2023-06-10T02:32:07;20.30;57.10
7970;DHT22;4030;52.362;9.206;2023-06-10T02:34:33;20.30;57.10
7970;DHT22;4030;52.362;9.206;2023-06-10T02:36:59;20.30;57.20
7970;DHT22;4030;52.362;9.206;2023-06-10T02:39:27;20.20;57.10
7970;DHT22;4030;52.362;9.206;2023-06-10T02:41:53;20.20;57.30
7970;DHT22;4030;52.362;9.206;2023-06-10T02:44:19;20.20;57.40
7970;DHT22;4030;52.362;9.206;2023-06-10T02:46:45;20.20;57.50
7970;DHT22;4030;52.362;9.206;2023-06-10T02:49:11;20.10;57.40
7970;DHT22;4030;52.362;9.206;2023-06-10T02:51:38;20.10;57.50
7970;DHT22;4030;52.362;9.206;2023-06-10T02:54:04;20.10;57.60
7970;DHT22;4030;52.362;9.206;2023-06-10T02:56:30;20.00;57.70
7970;DHT22;4030;52.362;9.206;2023-06-10T02:58:57;20.00;57.80
7970;DHT22;4030;52.362;9.206;2023-06-10T03:01:23;20.00;57.90
7970;DHT22;4030;52.362;9.206;2023-06-10T03:03:48;20.00;58.00
7970;DHT22;4030;52.362;9.206;2023-06-10T03:06:16;20.00;58.10
7970;DHT22;4030;52.362;9.206;2023-06-10T03:08:42;19.90;58.10
7970;DHT22;4030;52.362;9.206;2023-06-10T03:11:08;19.90;58.20
7970;DHT22;4030;52.362;9.206;2023-06-10T03:13:34;19.90;58.30
7970;DHT22;4030;52.362;9.206;2023-06-10T03:15:59;19.90;58.40
7970;DHT22;4030;52.362;9.206;2023-06-10T03:18:27;19.90;58.50
7970;DHT22;4030;52.362;9.206;2023-06-10T03:20:53;19.80;58.50
7970;DHT22;4030;52.362;9.206;2023-06-10T03:23:20;19.80;59.30
7970;DHT22;4030;52.362;9.206;2023-06-10T03:25:46;19.80;59.40
7970;DHT22;4030;52.362;9.206;2023-06-10T03:28:12;19.80;58.80
7970;DHT22;4030;52.362;9.206;2023-06-10T03:30:38;19.70;58.80
7970;DHT22;4030;52.362;9.206;2023-06-10T03:33:03;19.70;59.00
7970;DHT22;4030;52.362;9.206;2023-06-10T03:35:32;19.70;59.10
7970;DHT22;4030;52.362;9.206;2023-06-10T03:37:58;19.70;59.20
7970;DHT22;4030;52.362;9.206;2023-06-10T03:40:24;19.70;59.20
7970;DHT22;4030;52.362;9.206;2023-06-10T03:42:50;19.70;59.40
7970;DHT22;4030;52.362;9.206;2023-06-10T03:45:16;19.60;59.50
7970;DHT22;4030;52.362;9.206;2023-06-10T03:47:41;19.60;59.60
7970;DHT22;4030;52.362;9.206;2023-06-10T03:50:08;19.60;59.80
7970;DHT22;4030;52.362;9.206;2023-06-10T03:52:35;19.60;59.90
7970;DHT22;4030;52.362;9.206;2023-06-10T03:55:01;19.60;60.00
7970;DHT22;4030;52.362;9.206;2023-06-10T03:57:27;19.50;60.00
7970;DHT22;4030;52.362;9.206;2023-06-10T03:59:53;19.50;60.10
7970;DHT22;4030;52.362;9.206;2023-06-10T04:02:19;19.50;60.30
7970;DHT22;4030;52.362;9.206;2023-06-10T04:04:45;19.50;60.40
7970;DHT22;4030;52.362;9.206;2023-06-10T04:07:10;19.50;60.60
7970;DHT22;4030;52.362;9.206;2023-06-10T04:09:37;19.50;60.70
7970;DHT22;4030;52.362;9.206;2023-06-10T04:12:04;19.50;60.80
7970;DHT22;4030;52.362;9.206;2023-06-10T04:14:31;19.50;61.00
7970;DHT22;4030;52.362;9.206;2023-06-10T04:16:57;19.50;61.20
7970;DHT22;4030;52.362;9.206;2023-06-10T04:19:23;19.50;61.30
7970;DHT22;4030;52.362;9.206;2023-06-10T04:21:48;19.50;61.50
7970;DHT22;4030;52.362;9.206;2023-06-10T04:24:14;19.50;61.80
7970;DHT22;4030;52.362;9.206;2023-06-10T04:26:39;19.50;61.90
7970;DHT22;4030;52.362;9.206;2023-06-10T04:29:05;19.50;62.10
7970;DHT22;4030;52.362;9.206;2023-06-10T04:31:31;19.50;62.30
7970;DHT22;4030;52.362;9.206;2023-06-10T04:33:57;19.50;62.50
7970;DHT22;4030;52.362;9.206;2023-06-10T04:36:23;19.50;62.70
7970;DHT22;4030;52.362;9.206;2023-06-10T04:38:49;19.40;62.80
7970;DHT22;4030;52.362;9.206;2023-06-10T04:41:14;19.50;63.10
7970;DHT22;4030;52.362;9.206;2023-06-10T04:43:40;19.50;63.30
7970;DHT22;4030;52.362;9.206;2023-06-10T04:46:06;19.50;63.40
7970;DHT22;4030;52.362;9.206;2023-06-10T04:48:32;19.50;63.60
7970;DHT22;4030;52.362;9.206;2023-06-10T04:51:00;19.50;63.70
7970;DHT22;4030;52.362;9.206;2023-06-10T04:53:26;19.50;63.90
7970;DHT22;4030;52.362;9.206;2023-06-10T04:55:53;19.50;63.90
7970;DHT22;4030;52.362;9.206;2023-06-10T04:58:19;19.50;64.00
7970;DHT22;4030;52.362;9.206;2023-06-10T05:00:45;19.50;64.20
7970;DHT22;4030;52.362;9.206;2023-06-10T05:03:11;19.50;64.30
7970;DHT22;4030;52.362;9.206;2023-06-10T05:05:36;19.50;64.40
7970;DHT22;4030;52.362;9.206;2023-06-10T05:08:02;19.50;64.50
7970;DHT22;4030;52.362;9.206;2023-06-10T05:10:28;19.50;64.60
7970;DHT22;4030;52.362;9.206;2023-06-10T05:12:57;19.50;64.70
7970;DHT22;4030;52.362;9.206;2023-06-10T05:15:24;19.50;64.80
7970;DHT22;4030;52.362;9.206;2023-06-10T05:17:49;19.50;64.90
7970;DHT22;4030;52.362;9.206;2023-06-10T05:20:15;19.50;65.00
7970;DHT22;4030;52.362;9.206;2023-06-10T05:22:41;19.60;65.10
7970;DHT22;4030;52.362;9.206;2023-06-10T05:25:07;19.60;65.20
7970;DHT22;4030;52.362;9.206;2023-06-10T05:27:33;19.60;65.30
7970;DHT22;4030;52.362;9.206;2023-06-10T05:29:59;19.60;65.30
7970;DHT22;4030;52.362;9.206;2023-06-10T05:32:24;19.60;65.30
7970;DHT22;4030;52.362;9.206;2023-06-10T05:34:50;19.60;65.30
7970;DHT22;4030;52.362;9.206;2023-06-10T05:37:16;19.70;65.30
7970;DHT22;4030;52.362;9.206;2023-06-10T05:39:41;19.60;65.40
7970;DHT22;4030;52.362;9.206;2023-06-10T05:42:07;19.70;65.50
7970;DHT22;4030;52.362;9.206;2023-06-10T05:44:33;19.70;65.60
7970;DHT22;4030;52.362;9.206;2023-06-10T05:46:59;19.70;65.80
7970;DHT22;4030;52.362;9.206;2023-06-10T05:49:25;19.70;65.70
7970;DHT22;4030;52.362;9.206;2023-06-10T05:51:51;19.80;65.70
7970;DHT22;4030;52.362;9.206;2023-06-10T05:54:18;19.80;65.70
7970;DHT22;4030;52.362;9.206;2023-06-10T05:56:44;19.80;65.80
7970;DHT22;4030;52.362;9.206;2023-06-10T05:59:10;19.90;65.90
7970;DHT22;4030;52.362;9.206;2023-06-10T06:01:35;19.90;65.80
7970;DHT22;4030;52.362;9.206;2023-06-10T06:04:01;19.90;65.80
7970;DHT22;4030;52.362;9.206;2023-06-10T06:06:26;20.00;65.90
7970;DHT22;4030;52.362;9.206;2023-06-10T06:08:52;20.00;66.00
7970;DHT22;4030;52.362;9.206;2023-06-10T06:11:18;20.10;66.00
7970;DHT22;4030;52.362;9.206;2023-06-10T06:13:43;20.10;65.90
7970;DHT22;4030;52.362;9.206;2023-06-10T06:16:09;21.00;66.80
7970;DHT22;4030;52.362;9.206;2023-06-10T06:18:35;20.20;65.80
7970;DHT22;4030;52.362;9.206;2023-06-10T06:21:01;20.20;65.80
7970;DHT22;4030;52.362;9.206;2023-06-10T06:23:26;20.30;65.80
7970;DHT22;4030;52.362;9.206;2023-06-10T06:25:52;20.40;65.90
7970;DHT22;4030;52.362;9.206;2023-06-10T06:28:18;20.40;65.80
7970;DHT22;4030;52.362;9.206;2023-06-10T06:30:46;20.40;65.80
7970;DHT22;4030;52.362;9.206;2023-06-10T06:33:12;20.50;65.90
7970;DHT22;4030;52.362;9.206;2023-06-10T06:35:38;20.50;65.70
7970;DHT22;4030;52.362;9.206;2023-06-10T06:38:04;20.60;65.60
7970;DHT22;4030;52.362;9.206;2023-06-10T06:40:29;20.70;65.60
7970;DHT22;4030;52.362;9.206;2023-06-10T06:42:55;20.80;65.70
7970;DHT22;4030;52.362;9.206;2023-06-10T06:45:21;20.80;65.90
7970;DHT22;4030;52.362;9.206;2023-06-10T06:47:47;20.90;65.70
7970;DHT22;4030;52.362;9.206;2023-06-10T06:50:12;20.90;65.60
7970;DHT22;4030;52.362;9.206;2023-06-10T06:52:38;21.00;65.70
7970;DHT22;4030;52.362;9.206;2023-06-10T06:55:04;21.10;65.70
7970;DHT22;4030;52.362;9.206;2023-06-10T06:57:30;21.20;65.70
7970;DHT22;4030;52.362;9.206;2023-06-10T06:59:56;21.20;65.60
7970;DHT22;4030;52.362;9.206;2023-06-10T07:02:22;21.30;65.60
7970;DHT22;4030;52.362;9.206;2023-06-10T07:04:47;21.40;65.40
7970;DHT22;4030;52.362;9.206;2023-06-10T07:07:14;21.50;65.40
7970;DHT22;4030;52.362;9.206;2023-06-10T07:09:40;21.60;65.40
7970;DHT22;4030;52.362;9.206;2023-06-10T07:12:06;21.70;65.30
7970;DHT22;4030;52.362;9.206;2023-06-10T07:14:32;21.80;65.40
7970;DHT22;4030;52.362;9.206;2023-06-10T07:16:58;21.80;65.20
7970;DHT22;4030;52.362;9.206;2023-06-10T07:19:24;21.90;65.10
7970;DHT22;4030;52.362;9.206;2023-06-10T07:21:49;22.00;65.10
7970;DHT22;4030;52.362;9.206;2023-06-10T07:24:15;22.10;64.90
7970;DHT22;4030;52.362;9.206;2023-06-10T07:26:41;22.20;64.90
7970;DHT22;4030;52.362;9.206;2023-06-10T07:29:06;22.30;64.80
7970;DHT22;4030;52.362;9.206;2023-06-10T07:31:32;22.40;64.80
7970;DHT22;4030;52.362;9.206;2023-06-10T07:33:58;22.50;64.50
7970;DHT22;4030;52.362;9.206;2023-06-10T07:36:24;22.50;64.30
7970;DHT22;4030;52.362;9.206;2023-06-10T07:38:53;22.60;64.20
7970;DHT22;4030;52.362;9.206;2023-06-10T07:41:18;22.70;63.90
7970;DHT22;4030;52.362;9.206;2023-06-10T07:43:44;22.80;64.00
7970;DHT22;4030;52.362;9.206;2023-06-10T07:46:10;22.90;64.20
7970;DHT22;4030;52.362;9.206;2023-06-10T07:48:36;23.00;64.20
7970;DHT22;4030;52.362;9.206;2023-06-10T07:51:01;23.10;64.20
7970;DHT22;4030;52.362;9.206;2023-06-10T07:53:27;23.20;64.20
7970;DHT22;4030;52.362;9.206;2023-06-10T07:55:53;23.30;64.20
7970;DHT22;4030;52.362;9.206;2023-06-10T07:58:19;23.40;64.20
7970;DHT22;4030;52.362;9.206;2023-06-10T08:00:46;23.50;64.20
7970;DHT22;4030;52.362;9.206;2023-06-10T08:03:12;23.60;64.20
7970;DHT22;4030;52.362;9.206;2023-06-10T08:05:39;23.70;64.40
7970;DHT22;4030;52.362;9.206;2023-06-10T08:08:05;23.80;64.50
7970;DHT22;4030;52.362;9.206;2023-06-10T08:10:31;23.90;65.60
7970;DHT22;4030;52.362;9.206;2023-06-10T08:12:56;24.00;65.00
7970;DHT22;4030;52.362;9.206;2023-06-10T08:15:22;24.10;65.00
7970;DHT22;4030;52.362;9.206;2023-06-10T08:17:48;24.20;64.70
7970;DHT22;4030;52.362;9.206;2023-06-10T08:20:14;24.30;64.50
7970;DHT22;4030;52.362;9.206;2023-06-10T08:22:40;24.40;64.10
7970;DHT22;4030;52.362;9.206;2023-06-10T08:25:05;24.50;63.70
7970;DHT22;4030;52.362;9.206;2023-06-10T08:27:31;24.60;63.60
7970;DHT22;4030;52.362;9.206;2023-06-10T08:29:57;24.70;63.60
7970;DHT22;4030;52.362;9.206;2023-06-10T08:32:24;24.80;63.60
7970;DHT22;4030;52.362;9.206;2023-06-10T08:34:50;24.80;63.40
7970;DHT22;4030;52.362;9.206;2023-06-10T08:37:16;24.90;63.10
7970;DHT22;4030;52.362;9.206;2023-06-10T08:39:41;25.00;62.80
7970;DHT22;4030;52.362;9.206;2023-06-10T08:42:23;25.10;62.50
7970;DHT22;4030;52.362;9.206;2023-06-10T08:44:55;25.20;62.10
7970;DHT22;4030;52.362;9.206;2023-06-10T08:47:23;25.30;61.80
7970;DHT22;4030;52.362;9.206;2023-06-10T08:49:50;25.40;61.50
7970;DHT22;4030;52.362;9.206;2023-06-10T08:52:18;25.50;61.20
7970;DHT22;4030;52.362;9.206;2023-06-10T08:55:09;25.60;60.90
7970;DHT22;4030;52.362;9.206;2023-06-10T08:57:36;25.70;60.70
7970;DHT22;4030;52.362;9.206;2023-06-10T09:00:03;25.80;60.40
7970;DHT22;4030;52.362;9.206;2023-06-10T09:02:31;25.90;60.10
7970;DHT22;4030;52.362;9.206;2023-06-10T09:05:00;26.00;60.00
7970;DHT22;4030;52.362;9.206;2023-06-10T09:07:28;26.10;59.80
7970;DHT22;4030;52.362;9.206;2023-06-10T09:09:57;26.20;59.60
7970;DHT22;4030;52.362;9.206;2023-06-10T09:12:24;26.20;60.00
7970;DHT22;4030;52.362;9.206;2023-06-10T09:14:50;26.30;59.20
7970;DHT22;4030;52.362;9.206;2023-06-10T09:17:16;26.40;59.00
7970;DHT22;4030;52.362;9.206;2023-06-10T09:19:43;26.50;58.80
7970;DHT22;4030;52.362;9.206;2023-06-10T09:22:09;26.60;58.80
7970;DHT22;4030;52.362;9.206;2023-06-10T09:24:36;26.70;58.70
7970;DHT22;4030;52.362;9.206;2023-06-10T09:27:03;26.80;58.50
7970;DHT22;4030;52.362;9.206;2023-06-10T09:29:54;26.90;58.40
7970;DHT22;4030;52.362;9.206;2023-06-10T09:32:21;27.00;58.20
7970;DHT22;4030;52.362;9.206;2023-06-10T09:34:47;27.10;58.10
7970;DHT22;4030;52.362;9.206;2023-06-10T09:37:20;27.20;57.80
7970;DHT22;4030;52.362;9.206;2023-06-10T09:40:04;27.30;57.60
7970;DHT22;4030;52.362;9.206;2023-06-10T09:42:34;27.40;57.40
7970;DHT22;4030;52.362;9.206;2023-06-10T09:45:05;27.50;57.20
7970;DHT22;4030;52.362;9.206;2023-06-10T09:47:31;27.50;57.00
7970;DHT22;4030;52.362;9.206;2023-06-10T09:49:57;27.60;56.80
7970;DHT22;4030;52.362;9.206;2023-06-10T09:52:24;27.70;56.80
7970;DHT22;4030;52.362;9.206;2023-06-10T09:54:59;27.80;56.60
7970;DHT22;4030;52.362;9.206;2023-06-10T09:57:26;27.90;56.40
7970;DHT22;4030;52.362;9.206;2023-06-10T09:59:57;28.00;56.30
7970;DHT22;4030;52.362;9.206;2023-06-10T10:02:23;28.10;56.00
7970;DHT22;4030;52.362;9.206;2023-06-10T10:04:49;28.20;56.00
7970;DHT22;4030;52.362;9.206;2023-06-10T10:07:14;28.30;55.80
7970;DHT22;4030;52.362;9.206;2023-06-10T10:09:41;28.40;55.60
7970;DHT22;4030;52.362;9.206;2023-06-10T10:12:12;28.40;55.30
7970;DHT22;4030;52.362;9.206;2023-06-10T10:14:39;28.50;55.20
7970;DHT22;4030;52.362;9.206;2023-06-10T10:17:10;28.60;55.00
7970;DHT22;4030;52.362;9.206;2023-06-10T10:19:43;28.70;54.90
7970;DHT22;4030;52.362;9.206;2023-06-10T10:22:26;28.80;54.70
7970;DHT22;4030;52.362;9.206;2023-06-10T10:25:08;28.90;54.50
7970;DHT22;4030;52.362;9.206;2023-06-10T10:27:44;29.00;54.40
7970;DHT22;4030;52.362;9.206;2023-06-10T10:30:14;29.10;54.10
7970;DHT22;4030;52.362;9.206;2023-06-10T10:32:47;29.20;53.90
7970;DHT22;4030;52.362;9.206;2023-06-10T10:35:20;29.30;53.60
7970;DHT22;4030;52.362;9.206;2023-06-10T10:37:48;29.40;53.20
7970;DHT22;4030;52.362;9.206;2023-06-10T10:40:16;29.40;52.90
7970;DHT22;4030;52.362;9.206;2023-06-10T10:42:42;29.40;52.80
7970;DHT22;4030;52.362;9.206;2023-06-10T10:45:09;29.60;52.80
7970;DHT22;4030;52.362;9.206;2023-06-10T10:47:36;29.60;52.60
7970;DHT22;4030;52.362;9.206;2023-06-10T10:50:16;29.70;52.40
7970;DHT22;4030;52.362;9.206;2023-06-10T10:53:03;29.80;52.30
7970;DHT22;4030;52.362;9.206;2023-06-10T10:55:29;29.90;52.40
7970;DHT22;4030;52.362;9.206;2023-06-10T10:58:03;29.90;52.00
7970;DHT22;4030;52.362;9.206;2023-06-10T11:00:33;30.10;51.60
7970;DHT22;4030;52.362;9.206;2023-06-10T11:03:14;30.10;51.40
7970;DHT22;4030;52.362;9.206;2023-06-10T11:05:46;30.20;51.20
7970;DHT22;4030;52.362;9.206;2023-06-10T11:08:15;30.30;50.90
7970;DHT22;4030;52.362;9.206;2023-06-10T11:10:50;30.40;50.70
7970;DHT22;4030;52.362;9.206;2023-06-10T11:13:19;30.50;50.40
7970;DHT22;4030;52.362;9.206;2023-06-10T11:15:47;30.50;50.20
7970;DHT22;4030;52.362;9.206;2023-06-10T11:18:34;30.60;50.20
7970;DHT22;4030;52.362;9.206;2023-06-10T11:21:05;30.70;50.10
7970;DHT22;4030;52.362;9.206;2023-06-10T11:23:34;30.80;50.10
7970;DHT22;4030;52.362;9.206;2023-06-10T11:26:29;30.80;50.00
7970;DHT22;4030;52.362;9.206;2023-06-10T11:31:29;31.00;49.80
7970;DHT22;4030;52.362;9.206;2023-06-10T11:34:01;30.90;49.50
7970;DHT22;4030;52.362;9.206;2023-06-10T11:36:33;31.10;49.70
7970;DHT22;4030;52.362;9.206;2023-06-10T11:39:03;31.20;49.10
7970;DHT22;4030;52.362;9.206;2023-06-10T11:41:31;31.20;49.00
7970;DHT22;4030;52.362;9.206;2023-06-10T11:44:02;31.30;48.90
7970;DHT22;4030;52.362;9.206;2023-06-10T11:46:35;31.40;48.80
7970;DHT22;4030;52.362;9.206;2023-06-10T11:49:01;31.40;48.70
7970;DHT22;4030;52.362;9.206;2023-06-10T11:51:35;31.50;48.60
7970;DHT22;4030;52.362;9.206;2023-06-10T11:54:08;31.50;48.30
7970;DHT22;4030;52.362;9.206;2023-06-10T11:56:34;31.60;48.30
7970;DHT22;4030;52.362;9.206;2023-06-10T12:01:34;31.70;47.90
7970;DHT22;4030;52.362;9.206;2023-06-10T12:04:17;31.80;47.90
7970;DHT22;4030;52.362;9.206;2023-06-10T12:06:51;31.80;47.80
7970;DHT22;4030;52.362;9.206;2023-06-10T12:11:52;31.90;47.40
7970;DHT22;4030;52.362;9.206;2023-06-10T12:14:54;32.00;47.40
7970;DHT22;4030;52.362;9.206;2023-06-10T12:17:43;32.10;47.30
7970;DHT22;4030;52.362;9.206;2023-06-10T12:20:27;32.10;47.20
7970;DHT22;4030;52.362;9.206;2023-06-10T12:23:07;32.20;47.10
7970;DHT22;4030;52.362;9.206;2023-06-10T12:25:34;32.20;47.10
7970;DHT22;4030;52.362;9.206;2023-06-10T12:28:02;32.30;47.00
7970;DHT22;4030;52.362;9.206;2023-06-10T12:30:28;32.30;46.70
7970;DHT22;4030;52.362;9.206;2023-06-10T12:32:55;32.30;46.70
7970;DHT22;4030;52.362;9.206;2023-06-10T12:35:22;32.40;46.70
7970;DHT22;4030;52.362;9.206;2023-06-10T12:40:37;32.50;46.40
7970;DHT22;4030;52.362;9.206;2023-06-10T12:43:04;32.50;46.20
7970;DHT22;4030;52.362;9.206;2023-06-10T12:45:32;32.60;45.80
7970;DHT22;4030;52.362;9.206;2023-06-10T12:48:08;32.60;46.00
7970;DHT22;4030;52.362;9.206;2023-06-10T12:50:37;32.60;45.50
7970;DHT22;4030;52.362;9.206;2023-06-10T12:53:04;32.60;45.20
7970;DHT22;4030;52.362;9.206;2023-06-10T12:55:31;32.60;44.40
7970;DHT22;4030;52.362;9.206;2023-06-10T12:57:58;32.70;44.30
7970;DHT22;4030;52.362;9.206;2023-06-10T13:00:24;32.80;43.50
7970;DHT22;4030;52.362;9.206;2023-06-10T13:02:59;32.80;43.80
7970;DHT22;4030;52.362;9.206;2023-06-10T13:05:26;32.90;44.00
7970;DHT22;4030;52.362;9.206;2023-06-10T13:07:52;32.90;44.00
7970;DHT22;4030;52.362;9.206;2023-06-10T13:10:17;32.90;43.90
7970;DHT22;4030;52.362;9.206;2023-06-10T13:12:44;32.90;43.60
7970;DHT22;4030;52.362;9.206;2023-06-10T13:15:10;32.90;43.80
7970;DHT22;4030;52.362;9.206;2023-06-10T13:17:37;33.00;43.30
7970;DHT22;4030;52.362;9.206;2023-06-10T13:20:03;33.00;43.80
7970;DHT22;4030;52.362;9.206;2023-06-10T13:22:33;33.00;43.60
7970;DHT22;4030;52.362;9.206;2023-06-10T13:25:00;33.00;43.50
7970;DHT22;4030;52.362;9.206;2023-06-10T13:27:26;33.10;44.10
7970;DHT22;4030;52.362;9.206;2023-06-10T13:29:52;33.10;43.80
7970;DHT22;4030;52.362;9.206;2023-06-10T13:32:18;33.10;44.00
7970;DHT22;4030;52.362;9.206;2023-06-10T13:34:44;33.20;43.50
7970;DHT22;4030;52.362;9.206;2023-06-10T13:37:10;33.10;43.70
7970;DHT22;4030;52.362;9.206;2023-06-10T13:39:38;33.30;44.20
7970;DHT22;4030;52.362;9.206;2023-06-10T13:42:04;33.30;43.90
7970;DHT22;4030;52.362;9.206;2023-06-10T13:44:33;33.30;43.80
7970;DHT22;4030;52.362;9.206;2023-06-10T13:47:04;33.30;43.80
7970;DHT22;4030;52.362;9.206;2023-06-10T13:49:30;33.40;43.80
7970;DHT22;4030;52.362;9.206;2023-06-10T13:51:56;33.40;43.90
7970;DHT22;4030;52.362;9.206;2023-06-10T13:54:22;33.40;44.10
7970;DHT22;4030;52.362;9.206;2023-06-10T13:56:48;33.50;44.10
7970;DHT22;4030;52.362;9.206;2023-06-10T13:59:13;33.60;43.70
7970;DHT22;4030;52.362;9.206;2023-06-10T14:01:39;33.60;44.60
7970;DHT22;4030;52.362;9.206;2023-06-10T14:04:06;33.60;43.80
7970;DHT22;4030;52.362;9.206;2023-06-10T14:06:32;33.70;43.60
7970;DHT22;4030;52.362;9.206;2023-06-10T14:08:59;33.80;43.40
7970;DHT22;4030;52.362;9.206;2023-06-10T14:11:25;33.90;42.60
7970;DHT22;4030;52.362;9.206;2023-06-10T14:13:51;34.00;43.00
7970;DHT22;4030;52.362;9.206;2023-06-10T14:16:16;34.10;43.00
7970;DHT22;4030;52.362;9.206;2023-06-10T14:18:42;34.10;43.00
7970;DHT22;4030;52.362;9.206;2023-06-10T14:21:07;34.20;42.80
7970;DHT22;4030;52.362;9.206;2023-06-10T14:23:33;34.20;42.00
7970;DHT22;4030;52.362;9.206;2023-06-10T14:25:59;34.30;41.70
7970;DHT22;4030;52.362;9.206;2023-06-10T14:28:25;34.30;42.00
7970;DHT22;4030;52.362;9.206;2023-06-10T14:30:52;34.40;42.10
7970;DHT22;4030;52.362;9.206;2023-06-10T14:33:18;34.40;42.00
7970;DHT22;4030;52.362;9.206;2023-06-10T14:35:44;34.40;42.00
7970;DHT22;4030;52.362;9.206;2023-06-10T14:38:09;34.40;41.90
7970;DHT22;4030;52.362;9.206;2023-06-10T14:40:35;34.30;41.80
7970;DHT22;4030;52.362;9.206;2023-06-10T14:43:01;33.40;41.80
7970;DHT22;4030;52.362;9.206;2023-06-10T14:45:29;34.30;41.40
7970;DHT22;4030;52.362;9.206;2023-06-10T14:47:55;34.20;41.60
7970;DHT22;4030;52.362;9.206;2023-06-10T14:50:20;34.20;41.90
7970;DHT22;4030;52.362;9.206;2023-06-10T14:52:46;34.10;41.60
7970;DHT22;4030;52.362;9.206;2023-06-10T14:55:12;34.00;41.60
7970;DHT22;4030;52.362;9.206;2023-06-10T14:57:38;33.90;41.80
7970;DHT22;4030;52.362;9.206;2023-06-10T15:00:04;33.80;41.90
7970;DHT22;4030;52.362;9.206;2023-06-10T15:02:31;33.80;42.30
7970;DHT22;4030;52.362;9.206;2023-06-10T15:04:56;33.70;42.60
7970;DHT22;4030;52.362;9.206;2023-06-10T15:07:22;33.70;42.80
7970;DHT22;4030;52.362;9.206;2023-06-10T15:09:47;33.60;42.90
7970;DHT22;4030;52.362;9.206;2023-06-10T15:12:13;33.60;43.00
7970;DHT22;4030;52.362;9.206;2023-06-10T15:14:39;33.60;43.00
7970;DHT22;4030;52.362;9.206;2023-06-10T15:17:05;33.50;43.00
7970;DHT22;4030;52.362;9.206;2023-06-10T15:19:30;33.40;43.10
7970;DHT22;4030;52.362;9.206;2023-06-10T15:21:56;33.40;43.20
7970;DHT22;4030;52.362;9.206;2023-06-10T15:24:22;33.30;42.90
7970;DHT22;4030;52.362;9.206;2023-06-10T15:26:47;33.20;42.90
7970;DHT22;4030;52.362;9.206;2023-06-10T15:29:13;33.10;42.60
7970;DHT22;4030;52.362;9.206;2023-06-10T15:31:39;33.00;42.50
7970;DHT22;4030;52.362;9.206;2023-06-10T15:34:04;33.00;42.60
7970;DHT22;4030;52.362;9.206;2023-06-10T15:36:32;32.90;42.30
7970;DHT22;4030;52.362;9.206;2023-06-10T15:39:01;32.80;42.30
7970;DHT22;4030;52.362;9.206;2023-06-10T15:41:28;32.70;42.60
7970;DHT22;4030;52.362;9.206;2023-06-10T15:43:54;32.70;42.60
7970;DHT22;4030;52.362;9.206;2023-06-10T15:46:20;32.60;42.70
7970;DHT22;4030;52.362;9.206;2023-06-10T15:48:46;32.50;42.90
7970;DHT22;4030;52.362;9.206;2023-06-10T15:51:12;32.40;43.00
7970;DHT22;4030;52.362;9.206;2023-06-10T15:53:37;32.30;43.20
7970;DHT22;4030;52.362;9.206;2023-06-10T15:56:03;32.20;43.80
7970;DHT22;4030;52.362;9.206;2023-06-10T15:58:29;32.20;43.00
7970;DHT22;4030;52.362;9.206;2023-06-10T16:00:55;32.10;43.10
7970;DHT22;4030;52.362;9.206;2023-06-10T16:03:20;32.00;43.00
7970;DHT22;4030;52.362;9.206;2023-06-10T16:05:46;31.90;42.30
7970;DHT22;4030;52.362;9.206;2023-06-10T16:08:13;31.80;42.60
7970;DHT22;4030;52.362;9.206;2023-06-10T16:10:38;31.70;42.80
7970;DHT22;4030;52.362;9.206;2023-06-10T16:13:04;31.70;43.10
7970;DHT22;4030;52.362;9.206;2023-06-10T16:15:30;31.60;43.30
7970;DHT22;4030;52.362;9.206;2023-06-10T16:17:55;31.60;43.40